GTBK1: Arkansas River At Great Bend

Data processed at Thu May 23 2019 23:50


All information presented herein is the property of the government of the United States of America and may be revised or deleted at any time without prior notice.
Dissemination of this information without the expressed written consent of the Public Affairs Office, Tulsa District U.S. Army Corps of Engineers is strictly prohibited.
These data are gathered electronically and, as presented, have not undergone any form of quality control. These data are not guaranteed to be valid or correct.
Go to home page.
Go to station list.
Go to home page.

Upstream stations:

Downstream station:
Previous Day
Next Day
Current Day
    
SHEF ID:       GTBK1     ARKANSAS R AT GREAT BEND, KS
STATION TYPE:  

               PRECIP     STAGE  RIV-FLOW  AIR-TEMP  BAT-LOAD
                   in        ft       cfs         F      volt
              Ccp-Rev   Ccp-Rev   Ccp-Rev   Ccp-Rev   Ccp-Rev
(US/Central)
05/23 00:00      0.00     10.43      5397     57.34     12.89
05/23 01:00      0.00     10.49      5478     56.67     12.89
05/23 02:00      0.00     10.54      5546     55.78     12.89
05/23 03:00      0.00     10.60      5628     54.38     12.89
05/23 04:00      0.00     10.65      5697     54.87     12.83
05/23 05:00      0.00     10.74      5822     55.60     12.83
05/23 06:00      0.00     10.81      5921     55.62     12.83
05/23 07:00      0.00     10.82      5935     55.18     12.42
05/23 08:00      0.00     10.87      6006     55.99     12.83
05/23 09:00      0.00     10.86      5992     58.54     13.07
05/23 10:00      0.00     10.92      6078     60.21     13.36
05/23 11:00      0.00     10.94      6107     61.85     13.36
05/23 12:00      0.00     10.93      6093     62.43     13.36
05/23 13:00      0.00     10.99      6180     61.81     13.42
05/23 14:00      0.00     11.04      6253     65.81     13.59
05/23 15:00      0.00     11.06      6282     65.20     13.48
05/23 16:00      0.00     11.02      6223     65.41     13.30
05/23 17:00      0.00     11.10      6341     64.88     12.95
05/23 18:00      0.00     11.11      6356     64.00     12.95
05/23 19:00      0.00     11.07      6297     65.08     12.89
05/23 20:00      0.00     11.14      6401     67.16     12.89
05/23 21:00      0.00     11.13      6386     67.93     12.83
05/23 22:00      0.02     11.15      6416     68.92     12.83
05/23 23:00      0.01     11.19      6476     69.04     12.83